Time;durP1;ratioP1;P1;durP2;ratioP2;P2;SDS_P1;SDS_P2;PMS_P1;PMS_P2;Temp;Humidity;BMP_temperature;BMP_pressure;BME280_temperature;BME280_humidity;BME280_pressure;Samples;Min_cycle;Max_cycle;Signal;HPM_P1;HPM_P2
2021/09/22 00:00:26;;;;;;;9.98;8.98;;;15.10;1.00;;;;;;5050188;28;20105;-79
2021/09/22 00:02:51;;;;;;;9.95;8.95;;;14.90;1.00;;;;;;5049298;28;20489;-79
2021/09/22 00:05:18;;;;;;;9.55;8.65;;;14.80;1.00;;;;;;5050539;28;20025;-79
2021/09/22 00:07:44;;;;;;;10.55;8.93;;;14.70;1.00;;;;;;5050555;28;20531;-79
2021/09/22 00:10:14;;;;;;;12.75;9.27;;;14.70;1.00;;;;;;5048797;28;20263;-79
2021/09/22 00:12:39;;;;;;;12.00;9.40;;;14.70;1.00;;;;;;5048888;28;20025;-79
2021/09/22 00:15:07;;;;;;;12.48;9.25;;;14.70;1.00;;;;;;5049128;28;20079;-79
2021/09/22 00:17:33;;;;;;;12.80;9.10;;;14.70;1.00;;;;;;5049587;28;20060;-78
2021/09/22 00:19:59;;;;;;;10.98;9.00;;;14.60;1.00;;;;;;5050960;28;20049;-79
2021/09/22 00:22:25;;;;;;;9.73;8.70;;;14.70;1.00;;;;;;5048906;28;20112;-79
2021/09/22 00:24:50;;;;;;;11.38;8.90;;;14.70;1.00;;;;;;5049541;28;20044;-79
2021/09/22 00:27:16;;;;;;;9.93;8.93;;;14.60;1.00;;;;;;5048392;28;20462;-79
2021/09/22 00:29:42;;;;;;;11.00;9.68;;;14.60;1.00;;;;;;5048989;28;20029;-79
2021/09/22 00:32:08;;;;;;;11.00;9.00;;;14.60;1.00;;;;;;5051047;28;20532;-78
2021/09/22 00:34:34;;;;;;;10.82;9.25;;;14.60;1.00;;;;;;5048919;28;20446;-79
2021/09/22 00:36:59;;;;;;;13.18;9.18;;;14.60;1.00;;;;;;5047470;28;20044;-79
2021/09/22 00:39:25;;;;;;;10.02;9.02;;;14.60;1.00;;;;;;5048676;28;20036;-79
2021/09/22 00:41:51;;;;;;;11.32;9.80;;;14.50;1.00;;;;;;5048804;28;20060;-79
2021/09/22 00:44:16;;;;;;;10.65;9.43;;;14.50;1.00;;;;;;5050193;28;20448;-79
2021/09/22 00:46:42;;;;;;;10.98;8.77;;;14.50;1.00;;;;;;5050155;28;20029;-79
2021/09/22 00:49:08;;;;;;;10.07;9.00;;;14.40;1.00;;;;;;5049079;28;20075;-79
2021/09/22 00:51:33;;;;;;;11.85;8.88;;;14.30;1.00;;;;;;5048658;28;20493;-79
2021/09/22 00:53:59;;;;;;;12.13;8.77;;;14.30;1.00;;;;;;5048407;28;20104;-79
2021/09/22 00:56:25;;;;;;;10.40;9.23;;;14.30;1.00;;;;;;5049263;28;20040;-79
2021/09/22 00:58:50;;;;;;;13.50;9.77;;;14.30;1.00;;;;;;5052066;28;20021;-79
2021/09/22 01:01:18;;;;;;;10.20;9.20;;;14.20;1.00;;;;;;5052192;28;20029;-79
2021/09/22 01:03:44;;;;;;;9.88;8.88;;;14.10;1.00;;;;;;5052171;28;20086;-79
2021/09/22 01:06:13;;;;;;;10.23;8.85;;;14.20;1.00;;;;;;5034823;28;20564;-79
2021/09/22 01:08:40;;;;;;;10.13;9.13;;;14.20;1.00;;;;;;5036605;28;20032;-79
2021/09/22 01:11:06;;;;;;;9.73;8.73;;;14.10;1.00;;;;;;5054217;28;20465;-79
2021/09/22 01:13:31;;;;;;;10.10;9.07;;;14.10;1.00;;;;;;5051836;28;20044;-79
2021/09/22 01:15:58;;;;;;;10.07;8.80;;;14.20;1.00;;;;;;5050693;28;20116;-79
2021/09/22 01:18:24;;;;;;;11.20;9.13;;;14.10;1.00;;;;;;5052604;28;20025;-79
2021/09/22 01:20:53;;;;;;;10.60;9.45;;;14.00;1.00;;;;;;5051976;28;20033;-79
2021/09/22 01:23:20;;;;;;;11.55;9.45;;;14.00;1.00;;;;;;5052914;28;20010;-79
2021/09/22 01:25:49;;;;;;;10.23;9.13;;;14.00;1.00;;;;;;5053135;28;20025;-79
2021/09/22 01:28:19;;;;;;;13.70;9.20;;;14.10;1.00;;;;;;5052182;28;20103;-79
2021/09/22 01:30:45;;;;;;;9.85;8.85;;;14.10;1.00;;;;;;5051844;28;20116;-79
2021/09/22 01:33:13;;;;;;;9.98;8.93;;;14.00;1.00;;;;;;5052005;28;20036;-79
2021/09/22 01:35:43;;;;;;;12.40;9.70;;;13.90;1.00;;;;;;5036075;28;20033;-80
2021/09/22 01:38:16;;;;;;;10.48;8.82;;;13.80;1.00;;;;;;5049307;28;20047;-79
2021/09/22 01:41:12;;;;;;;10.70;9.05;;;13.90;1.00;;;;;;5051186;28;20029;-79
2021/09/22 01:43:38;;;;;;;11.75;9.40;;;13.90;1.00;;;;;;5044643;28;20393;-79
2021/09/22 01:46:06;;;;;;;11.07;9.40;;;13.80;1.00;;;;;;5051457;28;20553;-80
2021/09/22 01:48:32;;;;;;;10.73;9.52;;;13.80;1.00;;;;;;5051224;28;20028;-79
2021/09/22 01:51:00;;;;;;;10.20;9.20;;;13.80;1.00;;;;;;5052011;28;20024;-80
2021/09/22 01:53:27;;;;;;;10.98;9.85;;;13.80;1.00;;;;;;5052460;28;20029;-79
2021/09/22 01:55:53;;;;;;;11.20;9.20;;;13.80;1.00;;;;;;5051439;28;20039;-79
2021/09/22 01:58:19;;;;;;;10.57;9.48;;;13.70;1.00;;;;;;5052092;28;20554;-79
2021/09/22 02:00:45;;;;;;;11.98;9.30;;;13.70;1.00;;;;;;5051184;28;20037;-79
2021/09/22 02:03:11;;;;;;;10.32;9.10;;;13.80;1.00;;;;;;5051183;28;20059;-79
2021/09/22 02:05:37;;;;;;;11.77;9.50;;;13.70;1.00;;;;;;5051242;28;20090;-80
2021/09/22 02:08:03;;;;;;;9.93;8.70;;;13.70;1.00;;;;;;5052663;28;20048;-78
2021/09/22 02:10:29;;;;;;;10.55;9.45;;;13.60;1.00;;;;;;5051655;28;20037;-79
2021/09/22 02:12:55;;;;;;;10.82;8.98;;;13.50;1.00;;;;;;5051254;28;20136;-79
2021/09/22 02:15:23;;;;;;;12.88;9.60;;;13.50;1.00;;;;;;5050593;28;20094;-79
2021/09/22 02:17:48;;;;;;;14.32;9.52;;;13.50;1.00;;;;;;5050971;28;20397;-79
2021/09/22 02:20:15;;;;;;;11.10;9.00;;;13.50;1.00;;;;;;5034699;28;20025;-79
2021/09/22 02:22:41;;;;;;;14.65;9.43;;;13.50;1.00;;;;;;5051149;28;20039;-79
2021/09/22 02:25:08;;;;;;;10.82;9.73;;;13.50;1.00;;;;;;5051122;28;20366;-79
2021/09/22 02:27:34;;;;;;;10.60;9.55;;;13.50;1.00;;;;;;5050838;28;20048;-79
2021/09/22 02:30:00;;;;;;;11.25;9.80;;;13.50;1.00;;;;;;5050430;28;20032;-79
2021/09/22 02:32:26;;;;;;;10.20;9.13;;;13.40;1.00;;;;;;5051639;28;20086;-79
2021/09/22 02:34:52;;;;;;;12.20;9.35;;;13.40;1.00;;;;;;5050607;28;20037;-79
2021/09/22 02:37:17;;;;;;;11.02;9.32;;;13.40;1.00;;;;;;5050659;28;20039;-78
2021/09/22 02:39:43;;;;;;;10.80;9.70;;;13.30;1.00;;;;;;5050359;28;20025;-79
2021/09/22 02:42:09;;;;;;;11.60;9.75;;;13.30;1.00;;;;;;5051006;28;20059;-79
2021/09/22 02:44:35;;;;;;;11.68;9.40;;;13.30;1.00;;;;;;5051087;28;20029;-79
2021/09/22 02:47:00;;;;;;;12.43;9.68;;;13.40;1.00;;;;;;5052282;28;20021;-79
2021/09/22 02:49:27;;;;;;;10.65;9.55;;;13.20;1.00;;;;;;5049885;28;20461;-79
2021/09/22 02:51:52;;;;;;;11.85;9.40;;;13.10;1.00;;;;;;5050513;28;20021;-79
2021/09/22 02:54:18;;;;;;;12.50;9.85;;;13.60;1.00;;;;;;5050131;28;20040;-79
2021/09/22 02:56:44;;;;;;;13.05;9.98;;;13.40;1.00;;;;;;5050243;28;20037;-79
2021/09/22 02:59:10;;;;;;;10.88;9.77;;;13.10;1.00;;;;;;5052409;28;20033;-79
2021/09/22 03:01:35;;;;;;;10.18;8.98;;;13.20;1.00;;;;;;5049928;28;20079;-79
2021/09/22 03:04:01;;;;;;;11.82;9.57;;;13.20;1.00;;;;;;5049435;28;20047;-79
2021/09/22 03:06:27;;;;;;;11.23;9.32;;;13.10;1.00;;;;;;5049838;28;20033;-79
2021/09/22 03:08:53;;;;;;;12.18;9.50;;;13.20;1.00;;;;;;5050016;28;20058;-79
2021/09/22 03:11:19;;;;;;;11.35;9.52;;;13.40;1.00;;;;;;5051375;28;20025;-79
2021/09/22 03:13:44;;;;;;;9.95;8.98;;;13.50;1.00;;;;;;5049812;28;20041;-80
2021/09/22 03:16:11;;;;;;;11.25;9.60;;;13.10;1.00;;;;;;5049774;28;20115;-79
2021/09/22 03:18:38;;;;;;;10.48;9.38;;;13.10;1.00;;;;;;5049764;28;20017;-79
2021/09/22 03:21:04;;;;;;;13.90;9.20;;;13.30;1.00;;;;;;5048858;28;20036;-80
2021/09/22 03:23:30;;;;;;;13.32;10.10;;;13.10;1.00;;;;;;5050489;28;20023;-79
2021/09/22 03:25:56;;;;;;;13.88;9.75;;;13.10;1.00;;;;;;5051826;28;20029;-79
2021/09/22 03:28:22;;;;;;;14.23;9.88;;;13.30;1.00;;;;;;5049630;28;20480;-79
2021/09/22 03:30:48;;;;;;;10.05;9.05;;;13.00;1.00;;;;;;5050185;28;20112;-79
2021/09/22 03:33:14;;;;;;;11.75;9.88;;;13.40;1.00;;;;;;5049322;28;20552;-79
2021/09/22 03:35:43;;;;;;;11.30;9.40;;;12.90;1.00;;;;;;5034480;28;20048;-79
2021/09/22 03:38:09;;;;;;;14.40;9.63;;;13.00;1.00;;;;;;5047513;28;20056;-79
2021/09/22 03:40:36;;;;;;;13.38;9.55;;;13.00;1.00;;;;;;5049679;28;20028;-79
2021/09/22 03:43:03;;;;;;;11.25;9.65;;;12.80;1.00;;;;;;5050103;28;20025;-78
2021/09/22 03:45:29;;;;;;;10.43;9.25;;;13.00;1.00;;;;;;5049378;28;20059;-79
2021/09/22 03:47:56;;;;;;;12.23;9.52;;;12.60;1.00;;;;;;5049140;28;20025;-78
2021/09/22 03:50:21;;;;;;;11.98;9.65;;;12.60;1.00;;;;;;5050924;28;20441;-79
2021/09/22 03:52:47;;;;;;;10.43;9.18;;;12.50;1.00;;;;;;5049399;28;20092;-79
2021/09/22 03:55:12;;;;;;;12.35;9.82;;;12.60;1.00;;;;;;5049762;28;20094;-79
2021/09/22 03:57:38;;;;;;;11.95;9.20;;;12.70;1.00;;;;;;5049931;28;20029;-79
2021/09/22 04:00:05;;;;;;;11.25;10.00;;;12.60;1.00;;;;;;5049262;28;20036;-79
2021/09/22 04:02:30;;;;;;;10.88;9.43;;;12.60;1.00;;;;;;5048788;28;20033;-79
2021/09/22 04:04:56;;;;;;;12.65;9.65;;;12.70;1.00;;;;;;5051183;28;20102;-79
2021/09/22 04:07:22;;;;;;;10.98;9.23;;;12.80;1.00;;;;;;5049589;28;20041;-79
2021/09/22 04:09:47;;;;;;;12.40;9.57;;;12.80;1.00;;;;;;5049375;28;20021;-79
2021/09/22 04:12:13;;;;;;;10.23;9.13;;;13.00;1.00;;;;;;5049177;28;20065;-79
2021/09/22 04:14:38;;;;;;;15.02;9.30;;;12.70;1.00;;;;;;5048804;28;20046;-79
2021/09/22 04:17:04;;;;;;;13.52;9.60;;;12.60;1.00;;;;;;5050608;28;20551;-79
2021/09/22 04:19:30;;;;;;;12.02;9.43;;;13.10;1.00;;;;;;5048368;28;20040;-79
2021/09/22 04:21:55;;;;;;;12.07;9.90;;;12.60;1.00;;;;;;5048379;28;20466;-79
2021/09/22 04:24:21;;;;;;;13.18;10.02;;;12.60;1.00;;;;;;5048949;28;20029;-79
2021/09/22 04:26:46;;;;;;;11.50;9.23;;;12.70;1.00;;;;;;5049474;28;20029;-79
2021/09/22 04:29:12;;;;;;;12.15;10.10;;;12.70;1.00;;;;;;5051191;28;20516;-78
2021/09/22 04:31:40;;;;;;;11.63;10.13;;;12.60;1.00;;;;;;5047454;28;20473;-79
2021/09/22 04:34:06;;;;;;;11.52;10.00;;;12.50;1.00;;;;;;5052725;28;20032;-78
2021/09/22 04:36:31;;;;;;;15.65;10.55;;;13.00;1.00;;;;;;5052819;28;20051;-79
2021/09/22 04:38:57;;;;;;;11.65;10.40;;;12.60;1.00;;;;;;5053505;28;20105;-79
2021/09/22 04:41:23;;;;;;;11.18;10.07;;;12.60;1.00;;;;;;5053340;28;20060;-79
2021/09/22 04:43:48;;;;;;;16.50;10.50;;;12.60;1.00;;;;;;5054109;28;20533;-79
2021/09/22 04:46:15;;;;;;;11.18;9.75;;;12.60;1.00;;;;;;5052550;28;20555;-79
2021/09/22 04:48:41;;;;;;;13.98;10.57;;;12.70;1.00;;;;;;5052176;28;20117;-79
2021/09/22 04:51:07;;;;;;;12.55;9.60;;;12.80;1.00;;;;;;5052971;28;20072;-79
2021/09/22 04:53:33;;;;;;;11.50;10.30;;;13.00;1.00;;;;;;5052885;28;20034;-79
2021/09/22 04:55:59;;;;;;;11.25;10.15;;;13.10;1.00;;;;;;5054393;28;20048;-78
2021/09/22 04:58:25;;;;;;;15.07;9.88;;;13.50;1.00;;;;;;5052338;28;20033;-79
2021/09/22 05:00:50;;;;;;;12.93;9.70;;;13.20;1.00;;;;;;5052468;28;20458;-79
2021/09/22 05:03:16;;;;;;;10.50;9.43;;;13.30;1.00;;;;;;5052206;28;20029;-78
2021/09/22 05:05:42;;;;;;;10.85;9.45;;;13.50;1.00;;;;;;5052758;28;20116;-79
2021/09/22 05:08:09;;;;;;;11.55;9.85;;;13.30;1.00;;;;;;5050463;28;20022;-78
2021/09/22 05:10:35;;;;;;;10.82;9.23;;;13.40;1.00;;;;;;5050225;28;20058;-79
2021/09/22 05:13:00;;;;;;;13.38;10.02;;;13.50;1.00;;;;;;5051849;28;20489;-79
2021/09/22 05:15:26;;;;;;;10.98;9.32;;;13.40;1.00;;;;;;5032630;28;20053;-79
2021/09/22 05:17:52;;;;;;;13.02;9.05;;;13.40;1.00;;;;;;5052092;28;20029;-79
2021/09/22 05:20:17;;;;;;;12.25;9.15;;;13.50;1.00;;;;;;5035772;28;20038;-79
2021/09/22 05:22:43;;;;;;;10.48;9.30;;;13.40;1.00;;;;;;5052671;28;20208;-79
2021/09/22 05:25:09;;;;;;;11.15;9.05;;;13.50;1.00;;;;;;5051794;28;20033;-79
2021/09/22 05:27:35;;;;;;;10.80;9.48;;;13.50;1.00;;;;;;5052421;28;20032;-79
2021/09/22 05:30:00;;;;;;;12.05;10.05;;;13.60;1.00;;;;;;5051485;28;20034;-79
2021/09/22 05:32:26;;;;;;;13.63;9.80;;;13.60;1.00;;;;;;5052016;28;20040;-79
2021/09/22 05:34:52;;;;;;;11.43;9.68;;;13.50;1.00;;;;;;5051937;28;20028;-79
2021/09/22 05:37:18;;;;;;;14.57;10.35;;;13.40;1.00;;;;;;5051621;28;20401;-79
2021/09/22 05:39:44;;;;;;;12.35;9.85;;;13.50;1.00;;;;;;5049895;28;20044;-79
2021/09/22 05:42:10;;;;;;;14.68;10.73;;;13.60;1.00;;;;;;5051373;28;20024;-78
2021/09/22 05:44:35;;;;;;;12.30;10.13;;;13.60;1.00;;;;;;5050304;28;20028;-79
2021/09/22 05:47:01;;;;;;;11.25;9.95;;;13.60;1.00;;;;;;5053113;28;20021;-81
2021/09/22 05:49:28;;;;;;;15.55;10.38;;;13.60;1.00;;;;;;5050168;28;20033;-80
2021/09/22 05:51:54;;;;;;;13.85;11.73;;;13.70;1.00;;;;;;5051405;28;20021;-81
2021/09/22 05:54:21;;;;;;;18.02;11.52;;;13.70;1.00;;;;;;5051149;28;20227;-81
2021/09/22 05:56:50;;;;;;;19.33;13.35;;;13.70;1.00;;;;;;5051517;28;20397;-81
2021/09/22 05:59:15;;;;;;;19.73;14.77;;;13.70;1.00;;;;;;5052368;28;20473;-82
2021/09/22 06:01:41;;;;;;;18.42;12.85;;;13.70;1.00;;;;;;5052028;28;20029;-82
2021/09/22 06:04:07;;;;;;;16.08;12.45;;;13.90;1.00;;;;;;5051979;28;20476;-82
2021/09/22 06:06:33;;;;;;;14.93;13.10;;;13.80;1.00;;;;;;5051184;28;20120;-81
2021/09/22 06:08:59;;;;;;;18.77;13.43;;;13.80;1.00;;;;;;5051348;28;20028;-82
2021/09/22 06:11:24;;;;;;;20.13;13.98;;;13.80;1.00;;;;;;5051446;28;20028;-81
2021/09/22 06:13:53;;;;;;;21.38;13.15;;;14.00;1.00;;;;;;5052149;28;20570;-89
2021/09/22 06:16:20;;;;;;;17.77;14.55;;;14.00;1.00;;;;;;5048434;28;20057;-78
2021/09/22 06:18:46;;;;;;;18.60;13.13;;;13.90;1.00;;;;;;5047688;28;20017;-79
2021/09/22 06:21:11;;;;;;;18.00;13.48;;;13.80;1.00;;;;;;5049382;28;20041;-79
2021/09/22 06:23:37;;;;;;;14.88;12.82;;;13.80;1.00;;;;;;5050548;28;20025;-80
2021/09/22 06:26:03;;;;;;;23.70;18.35;;;13.90;1.00;;;;;;5052641;28;20043;-79
2021/09/22 06:28:28;;;;;;;32.28;19.55;;;13.90;1.00;;;;;;5049147;28;20527;-79
2021/09/22 06:30:54;;;;;;;26.48;20.92;;;13.80;1.00;;;;;;5050675;28;20040;-79
2021/09/22 06:33:19;;;;;;;30.00;20.58;;;13.80;1.00;;;;;;5050880;28;20028;-80
2021/09/22 06:35:45;;;;;;;32.22;22.60;;;13.80;1.00;;;;;;5050740;28;20040;-81
2021/09/22 06:38:11;;;;;;;33.10;22.98;;;13.90;1.00;;;;;;5052387;28;20037;-81
2021/09/22 06:40:37;;;;;;;30.80;22.17;;;13.90;1.00;;;;;;5051442;28;20036;-81
2021/09/22 06:43:04;;;;;;;31.85;22.63;;;13.80;1.00;;;;;;5049765;28;20036;-77
2021/09/22 06:45:30;;;;;;;33.17;22.58;;;13.90;1.00;;;;;;5050276;28;20524;-77
2021/09/22 06:47:55;;;;;;;31.40;23.83;;;14.00;1.00;;;;;;5050308;28;20044;-77
2021/09/22 06:50:21;;;;;;;32.83;23.75;;;14.10;1.00;;;;;;5051144;28;20480;-78
2021/09/22 06:52:47;;;;;;;34.00;23.38;;;14.00;1.00;;;;;;5051730;28;20071;-77
2021/09/22 06:55:13;;;;;;;35.03;24.02;;;14.00;1.00;;;;;;5050141;28;20412;-78
2021/09/22 06:57:39;;;;;;;35.72;24.50;;;14.00;1.00;;;;;;5049954;28;20033;-77
2021/09/22 07:00:09;;;;;;;35.55;24.83;;;14.00;1.00;;;;;;5049636;28;20116;-78
2021/09/22 07:02:34;;;;;;;37.50;25.30;;;14.10;1.00;;;;;;5050364;28;20032;-82
2021/09/22 07:05:00;;;;;;;38.45;25.60;;;14.20;1.00;;;;;;5052040;28;20025;-77
2021/09/22 07:07:25;;;;;;;37.40;25.80;;;14.10;1.00;;;;;;5048523;28;20533;-76
2021/09/22 07:09:51;;;;;;;37.00;24.80;;;14.10;1.00;;;;;;5032066;28;20025;-77
2021/09/22 07:12:17;;;;;;;35.53;24.65;;;14.20;1.00;;;;;;5049661;28;20536;-76
2021/09/22 07:14:42;;;;;;;35.63;23.88;;;14.10;1.00;;;;;;5050067;28;20124;-77
2021/09/22 07:17:08;;;;;;;31.98;23.70;;;14.00;1.00;;;;;;5047731;28;20393;-77
2021/09/22 07:19:33;;;;;;;30.30;21.83;;;14.00;1.00;;;;;;5049740;28;20040;-77
2021/09/22 07:22:00;;;;;;;34.75;23.85;;;14.10;1.00;;;;;;5050988;28;20095;-77
2021/09/22 07:24:26;;;;;;;46.45;26.00;;;14.20;1.00;;;;;;5050510;28;20098;-77
2021/09/22 07:26:52;;;;;;;38.22;25.52;;;14.10;1.00;;;;;;5049061;28;20468;-77
2021/09/22 07:29:17;;;;;;;35.05;24.50;;;13.80;1.00;;;;;;5051256;28;20032;-77
2021/09/22 07:31:44;;;;;;;36.63;24.83;;;13.90;1.00;;;;;;5050175;28;20143;-77
2021/09/22 07:34:09;;;;;;;40.85;24.80;;;13.90;1.00;;;;;;5049384;28;20036;-77
2021/09/22 07:36:35;;;;;;;33.78;24.52;;;14.00;1.00;;;;;;5049720;28;20048;-77
2021/09/22 07:39:01;;;;;;;30.10;23.52;;;14.00;1.00;;;;;;5049472;28;20021;-77
2021/09/22 07:41:26;;;;;;;31.55;23.08;;;14.10;1.00;;;;;;5049294;28;20033;-77
2021/09/22 07:43:52;;;;;;;33.03;23.40;;;14.20;1.00;;;;;;5049760;28;20048;-77
2021/09/22 07:46:18;;;;;;;34.65;24.20;;;14.20;1.00;;;;;;5047676;28;20059;-77
2021/09/22 07:48:43;;;;;;;37.40;24.95;;;14.30;1.00;;;;;;5049836;28;20049;-77
2021/09/22 07:51:09;;;;;;;35.40;25.33;;;14.30;1.00;;;;;;5049312;28;20029;-77
2021/09/22 07:53:35;;;;;;;35.90;25.05;;;14.50;1.00;;;;;;5049300;28;20106;-77
2021/09/22 07:56:00;;;;;;;31.60;23.30;;;14.30;1.00;;;;;;5050380;28;20036;-77
2021/09/22 07:58:26;;;;;;;30.77;21.20;;;14.40;1.00;;;;;;5049181;28;20037;-77
2021/09/22 08:00:51;;;;;;;27.60;20.20;;;14.40;1.00;;;;;;5049438;28;20021;-77
2021/09/22 08:03:17;;;;;;;28.45;20.25;;;14.60;1.00;;;;;;5049428;28;20028;-77
2021/09/22 08:05:43;;;;;;;27.88;20.23;;;14.80;1.00;;;;;;5048907;28;20022;-77
2021/09/22 08:08:09;;;;;;;29.02;21.35;;;15.00;1.00;;;;;;5049657;28;20025;-77
2021/09/22 08:10:36;;;;;;;25.90;19.63;;;14.90;1.00;;;;;;5053042;28;20071;-77
2021/09/22 08:13:02;;;;;;;26.60;19.67;;;14.90;1.00;;;;;;5053085;28;20032;-77
2021/09/22 08:15:28;;;;;;;30.33;20.40;;;15.20;1.00;;;;;;5052803;28;20041;-77
2021/09/22 08:17:54;;;;;;;24.92;19.77;;;15.20;1.00;;;;;;5054847;28;20102;-76
2021/09/22 08:20:20;;;;;;;25.85;19.20;;;15.40;1.00;;;;;;5054115;28;20435;-77
2021/09/22 08:22:46;;;;;;;27.80;19.48;;;15.50;1.00;;;;;;5054065;28;20469;-76
2021/09/22 08:25:12;;;;;;;26.30;19.55;;;15.60;1.00;;;;;;5051418;28;20500;-77
2021/09/22 08:27:38;;;;;;;25.42;20.17;;;15.50;1.00;;;;;;5034986;28;20033;-78
2021/09/22 08:30:05;;;;;;;28.48;19.23;;;15.90;1.00;;;;;;5034918;28;20116;-78
2021/09/22 08:32:31;;;;;;;23.55;18.42;;;16.00;1.00;;;;;;5053889;28;20397;-78
2021/09/22 08:34:57;;;;;;;21.55;17.55;;;15.90;1.00;;;;;;5055555;28;20029;-77
2021/09/22 08:37:22;;;;;;;20.98;17.17;;;16.10;1.00;;;;;;5052304;28;20040;-77
2021/09/22 08:39:48;;;;;;;20.98;16.83;;;16.10;1.00;;;;;;5053339;28;20017;-78
2021/09/22 08:42:14;;;;;;;22.73;17.42;;;16.00;1.00;;;;;;5052634;28;20128;-78
2021/09/22 08:44:41;;;;;;;23.67;16.67;;;16.10;1.00;;;;;;5053214;28;20068;-78
2021/09/22 08:47:06;;;;;;;19.92;16.52;;;16.50;1.00;;;;;;5054705;28;20397;-78
2021/09/22 08:49:32;;;;;;;22.25;16.65;;;16.50;1.00;;;;;;5052541;28;20025;-78
2021/09/22 08:51:57;;;;;;;21.80;16.88;;;16.60;1.00;;;;;;5052194;28;20032;-78
2021/09/22 08:54:23;;;;;;;22.08;16.88;;;16.70;1.00;;;;;;5052289;28;20079;-78
2021/09/22 08:56:49;;;;;;;20.67;16.70;;;17.00;1.00;;;;;;5052716;28;20044;-78
2021/09/22 08:59:15;;;;;;;19.90;16.52;;;17.20;1.00;;;;;;5054497;28;20028;-78
2021/09/22 09:02:01;;;;;;;22.35;16.60;;;17.30;1.00;;;;;;5051362;28;20043;-78
2021/09/22 09:04:27;;;;;;;20.75;17.13;;;17.00;1.00;;;;;;5051436;28;20033;-78
2021/09/22 09:06:56;;;;;;;23.02;18.10;;;18.20;1.00;;;;;;5051952;28;20035;-79
2021/09/22 09:09:35;;;;;;;20.67;16.63;;;17.80;1.00;;;;;;5034470;28;20505;-78
2021/09/22 09:12:02;;;;;;;22.15;17.13;;;17.90;1.00;;;;;;5052289;28;20024;-78
2021/09/22 09:14:33;;;;;;;19.50;16.75;;;17.90;1.00;;;;;;5052111;28;20037;-78
2021/09/22 09:17:01;;;;;;;20.35;16.80;;;17.70;1.00;;;;;;5053942;28;20063;-78
2021/09/22 09:19:27;;;;;;;21.00;17.38;;;17.40;1.00;;;;;;5051778;28;20062;-78
2021/09/22 09:22:09;;;;;;;22.35;18.20;;;17.10;1.00;;;;;;5051786;28;20052;-78
2021/09/22 09:24:37;;;;;;;22.67;17.35;;;17.20;1.00;;;;;;5052044;28;20024;-78
2021/09/22 09:27:06;;;;;;;25.58;20.42;;;17.50;1.00;;;;;;5052352;28;20040;-78
2021/09/22 09:29:32;;;;;;;28.95;21.60;;;17.90;1.00;;;;;;5053549;28;20465;-78
2021/09/22 09:32:16;;;;;;;26.48;21.52;;;17.60;1.00;;;;;;5053838;28;20033;-78
2021/09/22 09:34:56;;;;;;;26.45;20.08;;;17.70;1.00;;;;;;5051277;28;20496;-78
2021/09/22 09:37:49;;;;;;;26.05;20.20;;;17.70;1.00;;;;;;5051556;28;20408;-78
2021/09/22 09:40:25;;;;;;;25.90;18.83;;;18.00;1.00;;;;;;5031668;28;20686;-78
2021/09/22 09:42:57;;;;;;;27.08;20.15;;;18.10;1.00;;;;;;5051098;28;20025;-78
2021/09/22 09:45:24;;;;;;;23.35;18.77;;;17.80;1.00;;;;;;5052319;28;20025;-78
2021/09/22 09:48:00;;;;;;;23.75;18.83;;;17.70;1.00;;;;;;5051708;28;20028;-78
2021/09/22 09:50:27;;;;;;;25.70;19.42;;;17.50;1.00;;;;;;5051847;28;20028;-78
2021/09/22 09:52:55;;;;;;;22.42;18.83;;;17.80;1.00;;;;;;5052977;28;20025;-79
2021/09/22 09:55:23;;;;;;;26.17;20.20;;;18.30;1.00;;;;;;5051784;28;20067;-78
2021/09/22 09:57:50;;;;;;;24.05;19.63;;;18.20;1.00;;;;;;5051285;28;20025;-78
2021/09/22 10:00:34;;;;;;;23.40;20.50;;;18.10;1.00;;;;;;5051139;28;20389;-78
2021/09/22 10:03:23;;;;;;;23.10;20.38;;;18.40;1.00;;;;;;5052287;28;20040;-78
2021/09/22 10:05:51;;;;;;;23.48;17.85;;;19.20;1.00;;;;;;5037173;28;20053;-79
2021/09/22 10:08:18;;;;;;;22.75;20.00;;;20.00;1.00;;;;;;5052400;28;20128;-78
2021/09/22 10:10:46;;;;;;;23.88;19.15;;;19.90;1.00;;;;;;5051854;28;20041;-78
2021/09/22 10:13:14;;;;;;;20.58;18.42;;;20.80;1.00;;;;;;5033514;28;20484;-79
2021/09/22 10:15:41;;;;;;;22.95;19.65;;;22.00;1.00;;;;;;5050838;28;20114;-79
2021/09/22 10:18:08;;;;;;;21.83;18.05;;;25.20;1.00;;;;;;5051444;28;20122;-79
2021/09/22 10:20:40;;;;;;;19.83;17.80;;;26.80;1.00;;;;;;5050358;28;20366;-79
2021/09/22 10:23:06;;;;;;;19.27;17.27;;;25.20;1.00;;;;;;5052805;28;20029;-79
2021/09/22 10:25:33;;;;;;;19.08;17.08;;;26.90;1.00;;;;;;5051489;28;20103;-79
2021/09/22 10:27:58;;;;;;;18.13;16.23;;;31.40;1.00;;;;;;5050629;28;20033;-79
2021/09/22 10:30:36;;;;;;;16.40;14.85;;;32.80;1.00;;;;;;5050529;28;20036;-79
2021/09/22 10:33:03;;;;;;;17.02;15.25;;;36.20;1.00;;;;;;5050986;28;20025;-79
2021/09/22 10:35:35;;;;;;;17.52;15.50;;;37.50;1.00;;;;;;5050792;28;20036;-79
2021/09/22 10:38:19;;;;;;;17.23;15.65;;;37.60;1.00;;;;;;5052592;28;20021;-79
2021/09/22 10:41:05;;;;;;;16.80;15.30;;;35.50;1.00;;;;;;5051469;28;20044;-79
2021/09/22 10:43:41;;;;;;;15.20;13.70;;;36.10;1.00;;;;;;5050194;28;20061;-80
2021/09/22 10:46:07;;;;;;;16.00;14.40;;;38.90;1.00;;;;;;5050212;28;20040;-80
2021/09/22 10:48:42;;;;;;;14.60;13.30;;;33.20;1.00;;;;;;5050024;28;20083;-79
2021/09/22 10:51:10;;;;;;;15.55;13.85;;;33.60;1.00;;;;;;5050983;28;20400;-80
2021/09/22 10:53:41;;;;;;;15.82;14.30;;;35.00;1.00;;;;;;5051345;28;20025;-79
2021/09/22 10:56:16;;;;;;;14.80;13.40;;;32.10;1.00;;;;;;5052208;28;20040;-79
2021/09/22 10:58:45;;;;;;;15.35;14.00;;;31.50;1.00;;;;;;5049782;28;20025;-80
2021/09/22 11:01:11;;;;;;;16.33;14.73;;;35.70;1.00;;;;;;5048737;28;20115;-79
2021/09/22 11:03:57;;;;;;;15.95;14.45;;;36.70;1.00;;;;;;5031956;28;20112;-79
2021/09/22 11:06:48;;;;;;;15.55;14.05;;;37.10;1.00;;;;;;5049955;28;20439;-80
2021/09/22 11:09:28;;;;;;;14.60;13.05;;;38.60;1.00;;;;;;5050017;28;20032;-80
2021/09/22 11:12:00;;;;;;;14.95;13.35;;;36.80;1.00;;;;;;5036441;28;20094;-80
2021/09/22 11:14:50;;;;;;;14.50;13.00;;;36.80;1.00;;;;;;5049891;28;20055;-80
2021/09/22 11:17:18;;;;;;;14.35;13.07;;;39.90;99.90;;;;;;5047965;28;20045;-80
2021/09/22 11:19:51;;;;;;;14.32;13.02;;;38.70;99.90;;;;;;5051016;28;20032;-80
2021/09/22 11:22:20;;;;;;;14.95;13.60;;;39.30;99.90;;;;;;5050065;28;20025;-80
2021/09/22 11:24:47;;;;;;;15.10;13.63;;;38.60;99.90;;;;;;5049233;28;20472;-80
2021/09/22 11:27:18;;;;;;;14.25;12.90;;;38.80;99.90;;;;;;5051122;28;20112;-80
2021/09/22 11:29:45;;;;;;;13.88;12.68;;;40.40;99.90;;;;;;5034288;28;20025;-80
2021/09/22 11:32:42;;;;;;;13.93;12.73;;;36.70;99.90;;;;;;5051721;28;20025;-80
2021/09/22 11:35:18;;;;;;;13.90;12.60;;;33.40;1.00;;;;;;5047798;28;20072;-80
2021/09/22 11:37:47;;;;;;;13.73;12.35;;;32.70;1.00;;;;;;5050566;28;20072;-79
2021/09/22 11:40:24;;;;;;;13.50;12.32;;;34.80;1.00;;;;;;5047828;28;20028;-80
2021/09/22 11:42:54;;;;;;;15.30;14.00;;;38.40;99.90;;;;;;5048518;28;20150;-80
2021/09/22 11:45:36;;;;;;;12.93;11.75;;;36.10;99.90;;;;;;5049368;28;20025;-80
2021/09/22 11:48:02;;;;;;;14.32;12.93;;;35.10;1.00;;;;;;5049434;28;20021;-80
2021/09/22 11:50:35;;;;;;;13.88;12.55;;;32.00;1.00;;;;;;5049864;28;20075;-80
2021/09/22 11:53:02;;;;;;;12.77;11.55;;;35.80;1.00;;;;;;5052215;28;20040;-80
2021/09/22 11:55:28;;;;;;;13.07;11.70;;;38.20;99.90;;;;;;5049108;28;20037;-79
2021/09/22 11:57:54;;;;;;;13.35;12.00;;;39.40;99.90;;;;;;5050269;28;20025;-79
2021/09/22 12:00:24;;;;;;;13.35;11.95;;;40.00;99.90;;;;;;5048856;28;20025;-80
2021/09/22 12:02:51;;;;;;;13.10;11.85;;;39.20;99.90;;;;;;5049284;28;20021;-80
2021/09/22 12:05:19;;;;;;;12.90;11.77;;;39.90;99.90;;;;;;5051081;28;20526;-80
2021/09/22 12:07:47;;;;;;;12.70;11.68;;;40.50;99.90;;;;;;5050525;28;20021;-80
2021/09/22 12:10:13;;;;;;;13.05;11.25;;;39.90;99.90;;;;;;5049097;28;20116;-80
2021/09/22 12:12:40;;;;;;;11.98;10.75;;;40.20;99.90;;;;;;5048867;28;20021;-80
2021/09/22 12:15:08;;;;;;;11.43;10.52;;;41.10;99.90;;;;;;5049108;28;20106;-80
2021/09/22 12:17:36;;;;;;;11.00;10.10;;;41.10;99.90;;;;;;5048780;28;20052;-80
2021/09/22 12:20:09;;;;;;;12.82;11.82;;;41.20;99.90;;;;;;5050288;28;20025;-80
2021/09/22 12:22:36;;;;;;;12.07;11.07;;;40.80;99.90;;;;;;5049253;28;20021;-80
2021/09/22 12:25:04;;;;;;;11.63;10.63;;;40.00;99.90;;;;;;5049914;28;20397;-80
2021/09/22 12:27:31;;;;;;;13.27;11.88;;;41.00;99.90;;;;;;5049294;28;20021;-80
2021/09/22 12:29:57;;;;;;;11.82;10.82;;;40.20;99.90;;;;;;5048639;28;20044;-80
2021/09/22 12:32:28;;;;;;;12.30;11.30;;;40.00;99.90;;;;;;5050030;28;20552;-80
2021/09/22 12:34:56;;;;;;;12.48;11.38;;;40.50;99.90;;;;;;5049111;28;20048;-80
2021/09/22 12:37:24;;;;;;;11.60;10.50;;;40.50;99.90;;;;;;5048810;28;20057;-80
2021/09/22 12:39:54;;;;;;;12.88;11.70;;;38.70;99.90;;;;;;5048821;28;20029;-80
2021/09/22 12:42:21;;;;;;;12.80;11.45;;;34.80;99.90;;;;;;5048617;28;20749;-80